sensor_id;sensor_type;location;lat;lon;timestamp;P1;durP1;ratioP1;P2;durP2;ratioP2
20894;SDS011;10607;42.066;24.742;2023-12-28T00:01:45;2.47;;;2.23;;
20894;SDS011;10607;42.066;24.742;2023-12-28T00:04:10;4.77;;;2.27;;
20894;SDS011;10607;42.066;24.742;2023-12-28T00:06:35;4.20;;;2.50;;
20894;SDS011;10607;42.066;24.742;2023-12-28T00:09:00;9.93;;;3.57;;
20894;SDS011;10607;42.066;24.742;2023-12-28T00:11:26;6.13;;;3.00;;
20894;SDS011;10607;42.066;24.742;2023-12-28T00:13:51;6.83;;;3.90;;
20894;SDS011;10607;42.066;24.742;2023-12-28T00:16:16;12.50;;;3.50;;
20894;SDS011;10607;42.066;24.742;2023-12-28T00:18:41;6.27;;;2.80;;
20894;SDS011;10607;42.066;24.742;2023-12-28T00:21:07;4.53;;;2.60;;
20894;SDS011;10607;42.066;24.742;2023-12-28T00:23:32;6.60;;;3.23;;
20894;SDS011;10607;42.066;24.742;2023-12-28T00:25:57;6.80;;;3.80;;
20894;SDS011;10607;42.066;24.742;2023-12-28T00:28:23;3.67;;;2.23;;
20894;SDS011;10607;42.066;24.742;2023-12-28T00:30:48;5.63;;;3.03;;
20894;SDS011;10607;42.066;24.742;2023-12-28T00:33:13;5.27;;;2.83;;
20894;SDS011;10607;42.066;24.742;2023-12-28T00:35:38;4.80;;;2.70;;
20894;SDS011;10607;42.066;24.742;2023-12-28T00:38:04;8.57;;;3.07;;
20894;SDS011;10607;42.066;24.742;2023-12-28T00:40:29;4.03;;;2.73;;
20894;SDS011;10607;42.066;24.742;2023-12-28T00:42:54;4.73;;;2.17;;
20894;SDS011;10607;42.066;24.742;2023-12-28T00:45:20;2.37;;;1.73;;
20894;SDS011;10607;42.066;24.742;2023-12-28T00:47:45;3.50;;;1.70;;
20894;SDS011;10607;42.066;24.742;2023-12-28T00:50:10;2.60;;;1.93;;
20894;SDS011;10607;42.066;24.742;2023-12-28T00:52:37;3.67;;;2.30;;
20894;SDS011;10607;42.066;24.742;2023-12-28T00:55:02;3.23;;;2.40;;
20894;SDS011;10607;42.066;24.742;2023-12-28T00:57:27;4.17;;;2.17;;
20894;SDS011;10607;42.066;24.742;2023-12-28T00:59:52;3.57;;;2.23;;
20894;SDS011;10607;42.066;24.742;2023-12-28T01:02:18;5.70;;;3.10;;
20894;SDS011;10607;42.066;24.742;2023-12-28T01:04:43;4.47;;;2.80;;
20894;SDS011;10607;42.066;24.742;2023-12-28T01:07:08;7.37;;;3.00;;
20894;SDS011;10607;42.066;24.742;2023-12-28T01:09:33;8.13;;;3.90;;
20894;SDS011;10607;42.066;24.742;2023-12-28T01:11:59;7.33;;;3.07;;
20894;SDS011;10607;42.066;24.742;2023-12-28T01:14:24;7.57;;;4.03;;
20894;SDS011;10607;42.066;24.742;2023-12-28T01:16:49;5.77;;;3.50;;
20894;SDS011;10607;42.066;24.742;2023-12-28T01:19:14;6.03;;;3.43;;
20894;SDS011;10607;42.066;24.742;2023-12-28T01:21:40;5.40;;;3.23;;
20894;SDS011;10607;42.066;24.742;2023-12-28T01:24:05;5.67;;;3.43;;
20894;SDS011;10607;42.066;24.742;2023-12-28T01:26:30;6.17;;;2.90;;
20894;SDS011;10607;42.066;24.742;2023-12-28T01:28:55;4.63;;;2.97;;
20894;SDS011;10607;42.066;24.742;2023-12-28T01:31:22;3.80;;;2.87;;
20894;SDS011;10607;42.066;24.742;2023-12-28T01:33:47;3.40;;;2.37;;
20894;SDS011;10607;42.066;24.742;2023-12-28T01:36:18;4.17;;;2.30;;
20894;SDS011;10607;42.066;24.742;2023-12-28T01:38:44;3.90;;;2.50;;
20894;SDS011;10607;42.066;24.742;2023-12-28T01:41:09;5.83;;;2.57;;
20894;SDS011;10607;42.066;24.742;2023-12-28T01:43:34;5.27;;;2.50;;
20894;SDS011;10607;42.066;24.742;2023-12-28T01:45:59;2.53;;;2.33;;
20894;SDS011;10607;42.066;24.742;2023-12-28T01:48:25;3.87;;;2.53;;
20894;SDS011;10607;42.066;24.742;2023-12-28T01:50:50;3.57;;;2.10;;
20894;SDS011;10607;42.066;24.742;2023-12-28T01:53:15;3.37;;;1.90;;
20894;SDS011;10607;42.066;24.742;2023-12-28T01:55:40;2.13;;;1.93;;
20894;SDS011;10607;42.066;24.742;2023-12-28T01:58:06;3.37;;;1.90;;
20894;SDS011;10607;42.066;24.742;2023-12-28T02:00:31;3.23;;;1.80;;
20894;SDS011;10607;42.066;24.742;2023-12-28T02:02:56;3.40;;;2.20;;
20894;SDS011;10607;42.066;24.742;2023-12-28T02:05:22;3.80;;;1.70;;
20894;SDS011;10607;42.066;24.742;2023-12-28T02:07:48;3.23;;;2.17;;
20894;SDS011;10607;42.066;24.742;2023-12-28T02:10:13;4.07;;;1.97;;
20894;SDS011;10607;42.066;24.742;2023-12-28T02:12:38;3.80;;;1.83;;
20894;SDS011;10607;42.066;24.742;2023-12-28T02:15:03;3.57;;;1.83;;
20894;SDS011;10607;42.066;24.742;2023-12-28T02:17:47;5.13;;;2.37;;
20894;SDS011;10607;42.066;24.742;2023-12-28T02:20:15;7.57;;;3.13;;
20894;SDS011;10607;42.066;24.742;2023-12-28T02:22:42;6.37;;;3.50;;
20894;SDS011;10607;42.066;24.742;2023-12-28T02:25:09;4.90;;;3.03;;
20894;SDS011;10607;42.066;24.742;2023-12-28T02:29:59;5.80;;;3.23;;
20894;SDS011;10607;42.066;24.742;2023-12-28T02:35:29;8.60;;;3.20;;
20894;SDS011;10607;42.066;24.742;2023-12-28T02:37:56;6.00;;;3.43;;
20894;SDS011;10607;42.066;24.742;2023-12-28T02:40:23;7.20;;;3.77;;
20894;SDS011;10607;42.066;24.742;2023-12-28T02:42:48;4.37;;;3.10;;
20894;SDS011;10607;42.066;24.742;2023-12-28T02:45:14;3.23;;;2.53;;
20894;SDS011;10607;42.066;24.742;2023-12-28T02:47:39;3.60;;;2.60;;
20894;SDS011;10607;42.066;24.742;2023-12-28T02:50:05;5.73;;;2.80;;
20894;SDS011;10607;42.066;24.742;2023-12-28T02:52:30;4.13;;;3.00;;
20894;SDS011;10607;42.066;24.742;2023-12-28T02:54:55;3.27;;;2.47;;
20894;SDS011;10607;42.066;24.742;2023-12-28T02:57:21;6.37;;;3.07;;
20894;SDS011;10607;42.066;24.742;2023-12-28T02:59:46;4.83;;;3.13;;
20894;SDS011;10607;42.066;24.742;2023-12-28T03:02:11;4.67;;;3.10;;
20894;SDS011;10607;42.066;24.742;2023-12-28T03:04:36;7.50;;;3.13;;
20894;SDS011;10607;42.066;24.742;2023-12-28T03:07:01;4.37;;;2.40;;
20894;SDS011;10607;42.066;24.742;2023-12-28T03:09:27;4.57;;;2.67;;
20894;SDS011;10607;42.066;24.742;2023-12-28T03:11:52;4.13;;;2.90;;
20894;SDS011;10607;42.066;24.742;2023-12-28T03:14:18;5.57;;;2.80;;
20894;SDS011;10607;42.066;24.742;2023-12-28T03:16:43;4.83;;;2.93;;
20894;SDS011;10607;42.066;24.742;2023-12-28T03:19:08;84.87;;;25.93;;
20894;SDS011;10607;42.066;24.742;2023-12-28T03:21:38;7.73;;;3.70;;
20894;SDS011;10607;42.066;24.742;2023-12-28T03:24:03;4.20;;;2.33;;
20894;SDS011;10607;42.066;24.742;2023-12-28T03:26:28;5.93;;;2.47;;
20894;SDS011;10607;42.066;24.742;2023-12-28T03:28:54;4.40;;;1.93;;
20894;SDS011;10607;42.066;24.742;2023-12-28T03:31:19;3.80;;;2.37;;
20894;SDS011;10607;42.066;24.742;2023-12-28T03:33:44;2.37;;;1.90;;
20894;SDS011;10607;42.066;24.742;2023-12-28T03:36:17;4.03;;;2.30;;
20894;SDS011;10607;42.066;24.742;2023-12-28T03:38:42;5.13;;;2.23;;
20894;SDS011;10607;42.066;24.742;2023-12-28T03:41:15;2.40;;;2.17;;
20894;SDS011;10607;42.066;24.742;2023-12-28T03:43:40;4.03;;;1.97;;
20894;SDS011;10607;42.066;24.742;2023-12-28T03:46:06;3.87;;;1.90;;
20894;SDS011;10607;42.066;24.742;2023-12-28T03:48:31;4.73;;;2.03;;
20894;SDS011;10607;42.066;24.742;2023-12-28T03:50:56;3.50;;;2.07;;
20894;SDS011;10607;42.066;24.742;2023-12-28T03:53:21;3.00;;;1.90;;
20894;SDS011;10607;42.066;24.742;2023-12-28T03:55:46;3.20;;;1.90;;
20894;SDS011;10607;42.066;24.742;2023-12-28T03:58:12;10.57;;;2.90;;
20894;SDS011;10607;42.066;24.742;2023-12-28T04:00:37;65.20;;;18.63;;
20894;SDS011;10607;42.066;24.742;2023-12-28T04:03:02;11.17;;;4.73;;
20894;SDS011;10607;42.066;24.742;2023-12-28T04:05:28;6.37;;;3.53;;
20894;SDS011;10607;42.066;24.742;2023-12-28T04:07:53;6.10;;;3.20;;
20894;SDS011;10607;42.066;24.742;2023-12-28T04:10:27;8.97;;;3.80;;
20894;SDS011;10607;42.066;24.742;2023-12-28T04:12:53;5.17;;;3.07;;
20894;SDS011;10607;42.066;24.742;2023-12-28T04:15:22;4.87;;;3.23;;
20894;SDS011;10607;42.066;24.742;2023-12-28T04:17:47;5.07;;;2.97;;
20894;SDS011;10607;42.066;24.742;2023-12-28T04:20:12;5.33;;;3.20;;
20894;SDS011;10607;42.066;24.742;2023-12-28T04:22:38;5.47;;;3.47;;
20894;SDS011;10607;42.066;24.742;2023-12-28T04:25:03;5.53;;;3.27;;
20894;SDS011;10607;42.066;24.742;2023-12-28T04:27:28;6.97;;;2.90;;
20894;SDS011;10607;42.066;24.742;2023-12-28T04:29:54;6.60;;;3.50;;
20894;SDS011;10607;42.066;24.742;2023-12-28T04:32:19;4.93;;;3.20;;
20894;SDS011;10607;42.066;24.742;2023-12-28T04:34:44;6.60;;;2.80;;
20894;SDS011;10607;42.066;24.742;2023-12-28T04:37:09;5.20;;;3.20;;
20894;SDS011;10607;42.066;24.742;2023-12-28T04:39:35;3.77;;;3.00;;
20894;SDS011;10607;42.066;24.742;2023-12-28T04:42:00;5.57;;;3.53;;
20894;SDS011;10607;42.066;24.742;2023-12-28T04:44:25;5.67;;;3.13;;
20894;SDS011;10607;42.066;24.742;2023-12-28T04:46:51;5.90;;;2.77;;
20894;SDS011;10607;42.066;24.742;2023-12-28T04:49:16;9.13;;;3.20;;
20894;SDS011;10607;42.066;24.742;2023-12-28T04:51:44;4.70;;;3.00;;
20894;SDS011;10607;42.066;24.742;2023-12-28T04:54:10;3.37;;;2.60;;
20894;SDS011;10607;42.066;24.742;2023-12-28T04:56:35;6.00;;;3.00;;
20894;SDS011;10607;42.066;24.742;2023-12-28T04:59:00;4.80;;;3.20;;
20894;SDS011;10607;42.066;24.742;2023-12-28T05:01:25;5.53;;;3.47;;
20894;SDS011;10607;42.066;24.742;2023-12-28T05:03:51;7.03;;;3.63;;
20894;SDS011;10607;42.066;24.742;2023-12-28T05:06:16;3.80;;;3.30;;
20894;SDS011;10607;42.066;24.742;2023-12-28T05:08:41;10.27;;;3.57;;
20894;SDS011;10607;42.066;24.742;2023-12-28T05:11:06;7.03;;;3.83;;
20894;SDS011;10607;42.066;24.742;2023-12-28T05:13:31;5.27;;;3.90;;
20894;SDS011;10607;42.066;24.742;2023-12-28T05:15:57;6.03;;;3.33;;
20894;SDS011;10607;42.066;24.742;2023-12-28T05:18:22;6.10;;;3.30;;
20894;SDS011;10607;42.066;24.742;2023-12-28T05:20:47;7.00;;;3.00;;
20894;SDS011;10607;42.066;24.742;2023-12-28T05:23:12;3.60;;;2.50;;
20894;SDS011;10607;42.066;24.742;2023-12-28T05:25:38;4.50;;;2.83;;
20894;SDS011;10607;42.066;24.742;2023-12-28T05:28:03;7.80;;;2.87;;
20894;SDS011;10607;42.066;24.742;2023-12-28T05:30:28;3.47;;;2.47;;
20894;SDS011;10607;42.066;24.742;2023-12-28T05:32:53;7.90;;;2.90;;
20894;SDS011;10607;42.066;24.742;2023-12-28T05:35:19;5.17;;;2.97;;
20894;SDS011;10607;42.066;24.742;2023-12-28T05:37:44;4.37;;;2.63;;
20894;SDS011;10607;42.066;24.742;2023-12-28T05:40:09;6.87;;;2.90;;
20894;SDS011;10607;42.066;24.742;2023-12-28T05:42:35;3.70;;;2.80;;
20894;SDS011;10607;42.066;24.742;2023-12-28T05:45:00;4.50;;;3.30;;
20894;SDS011;10607;42.066;24.742;2023-12-28T05:47:25;5.20;;;3.07;;
20894;SDS011;10607;42.066;24.742;2023-12-28T05:49:51;5.67;;;3.63;;
20894;SDS011;10607;42.066;24.742;2023-12-28T05:52:17;7.10;;;4.80;;
20894;SDS011;10607;42.066;24.742;2023-12-28T05:54:44;9.13;;;5.00;;
20894;SDS011;10607;42.066;24.742;2023-12-28T05:57:09;10.07;;;5.37;;
20894;SDS011;10607;42.066;24.742;2023-12-28T05:59:38;9.53;;;5.77;;
20894;SDS011;10607;42.066;24.742;2023-12-28T06:02:04;8.13;;;4.87;;
20894;SDS011;10607;42.066;24.742;2023-12-28T06:04:29;12.88;;;5.32;;
20894;SDS011;10607;42.066;24.742;2023-12-28T06:06:55;9.97;;;5.30;;
20894;SDS011;10607;42.066;24.742;2023-12-28T06:09:20;7.00;;;5.23;;
20894;SDS011;10607;42.066;24.742;2023-12-28T06:11:45;11.67;;;5.93;;
20894;SDS011;10607;42.066;24.742;2023-12-28T06:14:10;9.80;;;5.07;;
20894;SDS011;10607;42.066;24.742;2023-12-28T06:16:36;7.60;;;4.87;;
20894;SDS011;10607;42.066;24.742;2023-12-28T06:19:01;9.93;;;5.03;;
20894;SDS011;10607;42.066;24.742;2023-12-28T06:21:26;10.30;;;5.03;;
20894;SDS011;10607;42.066;24.742;2023-12-28T06:23:53;9.63;;;5.13;;
20894;SDS011;10607;42.066;24.742;2023-12-28T06:26:18;8.87;;;5.40;;
20894;SDS011;10607;42.066;24.742;2023-12-28T06:28:43;20.43;;;5.83;;
20894;SDS011;10607;42.066;24.742;2023-12-28T06:31:08;21.88;;;6.63;;
20894;SDS011;10607;42.066;24.742;2023-12-28T06:33:34;19.17;;;7.32;;
20894;SDS011;10607;42.066;24.742;2023-12-28T06:36:04;19.70;;;7.43;;
20894;SDS011;10607;42.066;24.742;2023-12-28T06:38:29;14.43;;;7.65;;
20894;SDS011;10607;42.066;24.742;2023-12-28T06:40:56;25.27;;;7.22;;
20894;SDS011;10607;42.066;24.742;2023-12-28T06:43:21;19.98;;;7.70;;
20894;SDS011;10607;42.066;24.742;2023-12-28T06:45:47;18.98;;;8.13;;
20894;SDS011;10607;42.066;24.742;2023-12-28T06:48:12;16.65;;;7.28;;
20894;SDS011;10607;42.066;24.742;2023-12-28T06:50:37;13.25;;;7.25;;
20894;SDS011;10607;42.066;24.742;2023-12-28T06:53:02;14.68;;;7.45;;
20894;SDS011;10607;42.066;24.742;2023-12-28T06:55:28;15.48;;;7.75;;
20894;SDS011;10607;42.066;24.742;2023-12-28T06:57:53;13.30;;;7.82;;
20894;SDS011;10607;42.066;24.742;2023-12-28T07:00:18;15.63;;;8.50;;
20894;SDS011;10607;42.066;24.742;2023-12-28T07:02:44;14.98;;;8.38;;
20894;SDS011;10607;42.066;24.742;2023-12-28T07:05:09;13.52;;;8.48;;
20894;SDS011;10607;42.066;24.742;2023-12-28T07:07:34;13.65;;;8.57;;
20894;SDS011;10607;42.066;24.742;2023-12-28T07:10:01;13.63;;;8.23;;
20894;SDS011;10607;42.066;24.742;2023-12-28T07:12:26;18.27;;;8.20;;
20894;SDS011;10607;42.066;24.742;2023-12-28T07:14:51;17.20;;;8.20;;
20894;SDS011;10607;42.066;24.742;2023-12-28T07:17:16;61.42;;;12.00;;
20894;SDS011;10607;42.066;24.742;2023-12-28T07:19:42;16.73;;;8.57;;
20894;SDS011;10607;42.066;24.742;2023-12-28T07:22:08;18.13;;;8.57;;
20894;SDS011;10607;42.066;24.742;2023-12-28T07:24:33;14.15;;;7.50;;
20894;SDS011;10607;42.066;24.742;2023-12-28T07:26:58;11.23;;;6.18;;
20894;SDS011;10607;42.066;24.742;2023-12-28T07:29:23;11.07;;;5.63;;
20894;SDS011;10607;42.066;24.742;2023-12-28T07:31:48;10.95;;;5.38;;
20894;SDS011;10607;42.066;24.742;2023-12-28T07:34:14;7.53;;;4.10;;
20894;SDS011;10607;42.066;24.742;2023-12-28T07:36:39;24.13;;;5.57;;
20894;SDS011;10607;42.066;24.742;2023-12-28T07:39:07;10.95;;;4.53;;
20894;SDS011;10607;42.066;24.742;2023-12-28T07:41:33;6.70;;;3.97;;
20894;SDS011;10607;42.066;24.742;2023-12-28T07:43:58;6.40;;;4.18;;
20894;SDS011;10607;42.066;24.742;2023-12-28T07:46:23;6.68;;;4.10;;
20894;SDS011;10607;42.066;24.742;2023-12-28T07:48:49;8.73;;;4.68;;
20894;SDS011;10607;42.066;24.742;2023-12-28T07:51:15;10.57;;;5.00;;
20894;SDS011;10607;42.066;24.742;2023-12-28T07:53:40;8.25;;;4.78;;
20894;SDS011;10607;42.066;24.742;2023-12-28T07:56:05;13.30;;;4.43;;
20894;SDS011;10607;42.066;24.742;2023-12-28T07:58:30;13.57;;;5.07;;
20894;SDS011;10607;42.066;24.742;2023-12-28T08:00:56;9.75;;;4.90;;
20894;SDS011;10607;42.066;24.742;2023-12-28T08:03:21;13.40;;;5.68;;
20894;SDS011;10607;42.066;24.742;2023-12-28T08:05:46;7.63;;;5.35;;
20894;SDS011;10607;42.066;24.742;2023-12-28T08:08:12;8.07;;;4.72;;
20894;SDS011;10607;42.066;24.742;2023-12-28T08:10:37;12.80;;;4.97;;
20894;SDS011;10607;42.066;24.742;2023-12-28T08:13:02;10.07;;;4.55;;
20894;SDS011;10607;42.066;24.742;2023-12-28T08:15:27;6.88;;;4.15;;
20894;SDS011;10607;42.066;24.742;2023-12-28T08:17:53;6.18;;;4.30;;
20894;SDS011;10607;42.066;24.742;2023-12-28T08:20:18;10.52;;;4.07;;
20894;SDS011;10607;42.066;24.742;2023-12-28T08:22:43;5.60;;;3.95;;
20894;SDS011;10607;42.066;24.742;2023-12-28T08:25:08;6.70;;;4.13;;
20894;SDS011;10607;42.066;24.742;2023-12-28T08:27:34;12.15;;;4.45;;
20894;SDS011;10607;42.066;24.742;2023-12-28T08:29:59;8.20;;;4.30;;
20894;SDS011;10607;42.066;24.742;2023-12-28T08:32:25;7.28;;;3.92;;
20894;SDS011;10607;42.066;24.742;2023-12-28T08:34:50;15.27;;;4.65;;
20894;SDS011;10607;42.066;24.742;2023-12-28T08:37:15;10.13;;;4.80;;
20894;SDS011;10607;42.066;24.742;2023-12-28T08:39:41;6.40;;;4.60;;
20894;SDS011;10607;42.066;24.742;2023-12-28T08:42:06;8.35;;;4.68;;
20894;SDS011;10607;42.066;24.742;2023-12-28T08:44:31;7.82;;;4.63;;
20894;SDS011;10607;42.066;24.742;2023-12-28T08:46:57;15.43;;;4.32;;
20894;SDS011;10607;42.066;24.742;2023-12-28T08:49:23;7.53;;;4.55;;
20894;SDS011;10607;42.066;24.742;2023-12-28T08:51:48;14.70;;;4.60;;
20894;SDS011;10607;42.066;24.742;2023-12-28T08:54:13;9.23;;;4.90;;
20894;SDS011;10607;42.066;24.742;2023-12-28T08:56:39;7.93;;;5.03;;
20894;SDS011;10607;42.066;24.742;2023-12-28T08:59:04;8.98;;;5.18;;
20894;SDS011;10607;42.066;24.742;2023-12-28T09:01:29;9.82;;;5.35;;
20894;SDS011;10607;42.066;24.742;2023-12-28T09:03:55;10.15;;;5.18;;
20894;SDS011;10607;42.066;24.742;2023-12-28T09:06:20;11.80;;;5.40;;
20894;SDS011;10607;42.066;24.742;2023-12-28T09:08:49;8.73;;;4.85;;
20894;SDS011;10607;42.066;24.742;2023-12-28T09:11:15;13.55;;;5.45;;
20894;SDS011;10607;42.066;24.742;2023-12-28T09:13:40;9.95;;;5.75;;
20894;SDS011;10607;42.066;24.742;2023-12-28T09:16:10;11.05;;;5.50;;
20894;SDS011;10607;42.066;24.742;2023-12-28T09:18:36;8.77;;;5.00;;
20894;SDS011;10607;42.066;24.742;2023-12-28T09:21:05;10.90;;;4.90;;
20894;SDS011;10607;42.066;24.742;2023-12-28T09:23:31;11.25;;;5.97;;
20894;SDS011;10607;42.066;24.742;2023-12-28T09:25:57;11.90;;;6.00;;
20894;SDS011;10607;42.066;24.742;2023-12-28T09:28:22;14.30;;;5.68;;
20894;SDS011;10607;42.066;24.742;2023-12-28T09:30:47;10.63;;;5.90;;
20894;SDS011;10607;42.066;24.742;2023-12-28T09:33:13;10.40;;;5.57;;
20894;SDS011;10607;42.066;24.742;2023-12-28T09:35:38;9.38;;;5.68;;
20894;SDS011;10607;42.066;24.742;2023-12-28T09:38:03;8.82;;;5.55;;
20894;SDS011;10607;42.066;24.742;2023-12-28T09:40:28;11.82;;;6.40;;
20894;SDS011;10607;42.066;24.742;2023-12-28T09:43:37;11.05;;;5.65;;
20894;SDS011;10607;42.066;24.742;2023-12-28T09:45:42;12.68;;;5.97;;
20894;SDS011;10607;42.066;24.742;2023-12-28T09:48:07;10.05;;;5.63;;
20894;SDS011;10607;42.066;24.742;2023-12-28T09:50:32;14.90;;;6.28;;
20894;SDS011;10607;42.066;24.742;2023-12-28T09:52:57;14.02;;;6.38;;
20894;SDS011;10607;42.066;24.742;2023-12-28T09:55:23;16.45;;;6.75;;
20894;SDS011;10607;42.066;24.742;2023-12-28T09:57:50;9.00;;;6.75;;
20894;SDS011;10607;42.066;24.742;2023-12-28T10:00:15;20.13;;;6.43;;
20894;SDS011;10607;42.066;24.742;2023-12-28T10:02:43;14.38;;;6.30;;
20894;SDS011;10607;42.066;24.742;2023-12-28T10:05:11;8.32;;;5.13;;
20894;SDS011;10607;42.066;24.742;2023-12-28T10:07:39;10.20;;;6.68;;
20894;SDS011;10607;42.066;24.742;2023-12-28T10:10:05;13.50;;;4.53;;
20894;SDS011;10607;42.066;24.742;2023-12-28T10:12:32;10.82;;;4.88;;
20894;SDS011;10607;42.066;24.742;2023-12-28T10:14:57;11.07;;;5.13;;
20894;SDS011;10607;42.066;24.742;2023-12-28T10:17:23;13.15;;;4.20;;
20894;SDS011;10607;42.066;24.742;2023-12-28T10:19:48;7.03;;;4.32;;
20894;SDS011;10607;42.066;24.742;2023-12-28T10:22:13;7.43;;;4.55;;
20894;SDS011;10607;42.066;24.742;2023-12-28T10:24:45;10.50;;;5.28;;
20894;SDS011;10607;42.066;24.742;2023-12-28T10:27:10;11.82;;;5.72;;
20894;SDS011;10607;42.066;24.742;2023-12-28T10:29:36;9.10;;;6.15;;
20894;SDS011;10607;42.066;24.742;2023-12-28T10:32:01;14.07;;;5.53;;
20894;SDS011;10607;42.066;24.742;2023-12-28T10:34:26;13.75;;;4.82;;
20894;SDS011;10607;42.066;24.742;2023-12-28T10:36:51;13.32;;;5.30;;
20894;SDS011;10607;42.066;24.742;2023-12-28T10:39:18;8.50;;;5.40;;
20894;SDS011;10607;42.066;24.742;2023-12-28T10:41:44;11.43;;;5.03;;
20894;SDS011;10607;42.066;24.742;2023-12-28T10:44:14;11.68;;;5.45;;
20894;SDS011;10607;42.066;24.742;2023-12-28T10:46:42;12.50;;;5.70;;
20894;SDS011;10607;42.066;24.742;2023-12-28T10:49:11;8.55;;;5.35;;
20894;SDS011;10607;42.066;24.742;2023-12-28T10:51:38;8.70;;;4.65;;
20894;SDS011;10607;42.066;24.742;2023-12-28T10:54:12;8.38;;;4.90;;
20894;SDS011;10607;42.066;24.742;2023-12-28T10:56:49;10.60;;;5.32;;
20894;SDS011;10607;42.066;24.742;2023-12-28T11:01:46;9.35;;;5.65;;
20894;SDS011;10607;42.066;24.742;2023-12-28T11:06:37;10.77;;;5.60;;
20894;SDS011;10607;42.066;24.742;2023-12-28T11:09:03;7.72;;;5.32;;
20894;SDS011;10607;42.066;24.742;2023-12-28T11:11:30;9.05;;;5.30;;
20894;SDS011;10607;42.066;24.742;2023-12-28T11:13:55;11.65;;;5.55;;
20894;SDS011;10607;42.066;24.742;2023-12-28T11:16:21;12.23;;;5.30;;
20894;SDS011;10607;42.066;24.742;2023-12-28T11:18:47;9.13;;;5.05;;
20894;SDS011;10607;42.066;24.742;2023-12-28T11:21:12;9.60;;;5.10;;
20894;SDS011;10607;42.066;24.742;2023-12-28T11:23:38;9.25;;;4.65;;
20894;SDS011;10607;42.066;24.742;2023-12-28T11:26:03;8.77;;;4.60;;
20894;SDS011;10607;42.066;24.742;2023-12-28T11:28:28;9.00;;;4.90;;
20894;SDS011;10607;42.066;24.742;2023-12-28T11:30:54;12.23;;;4.90;;
20894;SDS011;10607;42.066;24.742;2023-12-28T11:33:19;10.18;;;5.03;;
20894;SDS011;10607;42.066;24.742;2023-12-28T11:35:44;12.95;;;5.63;;
20894;SDS011;10607;42.066;24.742;2023-12-28T11:38:12;12.20;;;5.95;;
20894;SDS011;10607;42.066;24.742;2023-12-28T11:40:40;6.95;;;4.97;;
20894;SDS011;10607;42.066;24.742;2023-12-28T11:43:18;9.07;;;5.38;;
20894;SDS011;10607;42.066;24.742;2023-12-28T11:45:51;10.45;;;4.95;;
20894;SDS011;10607;42.066;24.742;2023-12-28T11:48:23;12.40;;;5.75;;
20894;SDS011;10607;42.066;24.742;2023-12-28T11:50:50;12.32;;;5.55;;
20894;SDS011;10607;42.066;24.742;2023-12-28T11:53:16;13.20;;;5.05;;
20894;SDS011;10607;42.066;24.742;2023-12-28T11:55:41;11.95;;;4.80;;
20894;SDS011;10607;42.066;24.742;2023-12-28T11:58:07;7.80;;;4.78;;
20894;SDS011;10607;42.066;24.742;2023-12-28T12:00:32;8.40;;;4.57;;
20894;SDS011;10607;42.066;24.742;2023-12-28T12:02:57;11.48;;;4.68;;
20894;SDS011;10607;42.066;24.742;2023-12-28T12:05:23;8.77;;;4.78;;
20894;SDS011;10607;42.066;24.742;2023-12-28T12:07:51;8.45;;;5.47;;
20894;SDS011;10607;42.066;24.742;2023-12-28T12:10:16;10.45;;;4.65;;
20894;SDS011;10607;42.066;24.742;2023-12-28T12:12:41;7.55;;;4.55;;
20894;SDS011;10607;42.066;24.742;2023-12-28T12:15:07;10.48;;;5.18;;
20894;SDS011;10607;42.066;24.742;2023-12-28T12:17:33;12.32;;;4.80;;
20894;SDS011;10607;42.066;24.742;2023-12-28T12:19:58;13.60;;;5.38;;
20894;SDS011;10607;42.066;24.742;2023-12-28T12:22:23;11.00;;;5.60;;
20894;SDS011;10607;42.066;24.742;2023-12-28T12:24:48;15.50;;;6.05;;
20894;SDS011;10607;42.066;24.742;2023-12-28T12:27:15;13.63;;;6.65;;
20894;SDS011;10607;42.066;24.742;2023-12-28T12:29:41;14.73;;;6.10;;
20894;SDS011;10607;42.066;24.742;2023-12-28T12:32:06;10.70;;;5.97;;
20894;SDS011;10607;42.066;24.742;2023-12-28T12:34:32;46.25;;;22.38;;
20894;SDS011;10607;42.066;24.742;2023-12-28T12:36:57;15.35;;;6.55;;
20894;SDS011;10607;42.066;24.742;2023-12-28T12:39:23;9.38;;;5.68;;
20894;SDS011;10607;42.066;24.742;2023-12-28T12:41:49;17.38;;;7.88;;
20894;SDS011;10607;42.066;24.742;2023-12-28T12:44:14;11.27;;;5.68;;
20894;SDS011;10607;42.066;24.742;2023-12-28T12:46:41;18.23;;;6.85;;
20894;SDS011;10607;42.066;24.742;2023-12-28T12:49:07;142.63;;;55.90;;
20894;SDS011;10607;42.066;24.742;2023-12-28T12:51:32;26.58;;;11.70;;
20894;SDS011;10607;42.066;24.742;2023-12-28T12:53:58;17.83;;;10.75;;
20894;SDS011;10607;42.066;24.742;2023-12-28T12:56:24;21.92;;;9.82;;
20894;SDS011;10607;42.066;24.742;2023-12-28T12:58:49;134.85;;;55.75;;
20894;SDS011;10607;42.066;24.742;2023-12-28T13:01:14;56.13;;;24.58;;
20894;SDS011;10607;42.066;24.742;2023-12-28T13:03:40;20.23;;;9.18;;
20894;SDS011;10607;42.066;24.742;2023-12-28T13:06:05;17.38;;;7.90;;
20894;SDS011;10607;42.066;24.742;2023-12-28T13:08:30;87.43;;;33.38;;
20894;SDS011;10607;42.066;24.742;2023-12-28T13:10:55;166.32;;;58.60;;
20894;SDS011;10607;42.066;24.742;2023-12-28T13:13:21;69.55;;;24.13;;
20894;SDS011;10607;42.066;24.742;2023-12-28T13:15:46;108.15;;;35.42;;
20894;SDS011;10607;42.066;24.742;2023-12-28T13:18:11;192.00;;;68.85;;
20894;SDS011;10607;42.066;24.742;2023-12-28T13:20:37;164.82;;;55.70;;
20894;SDS011;10607;42.066;24.742;2023-12-28T13:23:02;144.80;;;49.63;;
20894;SDS011;10607;42.066;24.742;2023-12-28T13:25:27;284.27;;;91.75;;
20894;SDS011;10607;42.066;24.742;2023-12-28T13:27:53;337.55;;;108.85;;
20894;SDS011;10607;42.066;24.742;2023-12-28T13:30:19;122.90;;;40.30;;
20894;SDS011;10607;42.066;24.742;2023-12-28T13:32:44;39.05;;;13.65;;
20894;SDS011;10607;42.066;24.742;2023-12-28T13:35:09;121.55;;;38.60;;
20894;SDS011;10607;42.066;24.742;2023-12-28T13:37:34;94.53;;;31.98;;
20894;SDS011;10607;42.066;24.742;2023-12-28T13:40:00;24.73;;;11.82;;
20894;SDS011;10607;42.066;24.742;2023-12-28T13:42:25;62.58;;;22.20;;
20894;SDS011;10607;42.066;24.742;2023-12-28T13:44:50;143.65;;;41.22;;
20894;SDS011;10607;42.066;24.742;2023-12-28T13:47:15;46.20;;;19.85;;
20894;SDS011;10607;42.066;24.742;2023-12-28T13:49:41;38.70;;;16.40;;
20894;SDS011;10607;42.066;24.742;2023-12-28T13:52:06;36.17;;;15.30;;
20894;SDS011;10607;42.066;24.742;2023-12-28T13:54:31;94.05;;;35.67;;
20894;SDS011;10607;42.066;24.742;2023-12-28T13:56:56;59.42;;;24.35;;
20894;SDS011;10607;42.066;24.742;2023-12-28T13:59:24;27.67;;;12.90;;
20894;SDS011;10607;42.066;24.742;2023-12-28T14:01:49;57.92;;;27.58;;
20894;SDS011;10607;42.066;24.742;2023-12-28T14:04:14;26.55;;;12.82;;
20894;SDS011;10607;42.066;24.742;2023-12-28T14:06:39;24.55;;;12.05;;
20894;SDS011;10607;42.066;24.742;2023-12-28T14:09:05;31.20;;;13.30;;
20894;SDS011;10607;42.066;24.742;2023-12-28T14:11:30;28.10;;;12.63;;
20894;SDS011;10607;42.066;24.742;2023-12-28T14:13:56;20.25;;;10.02;;
20894;SDS011;10607;42.066;24.742;2023-12-28T14:16:21;50.75;;;20.27;;
20894;SDS011;10607;42.066;24.742;2023-12-28T14:18:46;20.25;;;10.40;;
20894;SDS011;10607;42.066;24.742;2023-12-28T14:21:13;21.23;;;10.43;;
20894;SDS011;10607;42.066;24.742;2023-12-28T14:23:39;18.83;;;10.98;;
20894;SDS011;10607;42.066;24.742;2023-12-28T14:26:07;21.13;;;9.82;;
20894;SDS011;10607;42.066;24.742;2023-12-28T14:28:35;18.05;;;8.25;;